Time;durP1;ratioP1;P1;durP2;ratioP2;P2;SDS_P1;SDS_P2;PMS_P1;PMS_P2;Temp;Humidity;BMP_temperature;BMP_pressure;BME280_temperature;BME280_humidity;BME280_pressure;Samples;Min_cycle;Max_cycle;Signal;HPM_P1;HPM_P2
2024/04/02 00:01:11;;;;;;;0.93;0.70;;;13.60;65.80;;;;;;6296042;28;20047;-73
2024/04/02 00:04:14;;;;;;;3.15;0.70;;;13.60;65.80;;;;;;6263504;28;20024;-71
2024/04/02 00:07:14;;;;;;;1.33;0.70;;;13.60;65.70;;;;;;6292107;28;20032;-74
2024/04/02 00:10:15;;;;;;;0.50;0.50;;;13.60;65.90;;;;;;6303185;28;20028;-73
2024/04/02 00:13:16;;;;;;;0.85;0.35;;;13.60;65.60;;;;;;6304003;28;20047;-75
2024/04/02 00:16:17;;;;;;;1.17;0.50;;;13.60;65.70;;;;;;6299270;28;20337;-72
2024/04/02 00:19:18;;;;;;;0.88;0.50;;;13.60;65.70;;;;;;6288560;28;20115;-74
2024/04/02 00:22:19;;;;;;;0.70;0.65;;;13.50;65.40;;;;;;6306700;28;20092;-72
2024/04/02 00:25:20;;;;;;;0.35;0.30;;;13.60;65.60;;;;;;6311246;28;20032;-73
2024/04/02 00:28:20;;;;;;;1.30;0.50;;;13.60;65.70;;;;;;6310821;28;20391;-74
2024/04/02 00:31:21;;;;;;;0.40;0.28;;;13.60;65.90;;;;;;6273698;28;20021;-73
2024/04/02 00:34:22;;;;;;;0.82;0.30;;;13.60;65.90;;;;;;6286065;28;20039;-71
2024/04/02 00:37:23;;;;;;;2.55;0.55;;;13.70;66.00;;;;;;6299282;28;20133;-72
2024/04/02 00:40:24;;;;;;;0.45;0.30;;;13.70;66.10;;;;;;6301033;28;20078;-72
2024/04/02 00:43:26;;;;;;;0.75;0.63;;;13.70;66.10;;;;;;6267537;28;20103;-73
2024/04/02 00:46:27;;;;;;;0.47;0.45;;;13.80;65.50;;;;;;6276272;28;20508;-74
2024/04/02 00:49:29;;;;;;;0.55;0.30;;;13.70;65.40;;;;;;6306202;28;20161;-74
2024/04/02 00:52:30;;;;;;;1.20;0.70;;;13.70;65.50;;;;;;6293742;28;20028;-73
2024/04/02 00:55:31;;;;;;;0.85;0.65;;;13.60;65.20;;;;;;6284988;28;20127;-74
2024/04/02 00:58:32;;;;;;;0.43;0.30;;;13.50;65.30;;;;;;6304942;28;20056;-74
2024/04/02 01:01:33;;;;;;;1.02;0.50;;;13.50;65.70;;;;;;6300315;28;20020;-74
2024/04/02 01:04:34;;;;;;;3.60;0.60;;;13.50;65.90;;;;;;6293447;28;20025;-73
2024/04/02 01:07:39;;;;;;;0.35;0.32;;;13.40;66.90;;;;;;6304666;28;20108;-73
2024/04/02 01:10:40;;;;;;;0.95;0.75;;;13.40;66.40;;;;;;6291646;28;20020;-74
2024/04/02 01:13:40;;;;;;;1.13;0.60;;;13.50;66.70;;;;;;6282350;28;20048;-73
2024/04/02 01:16:42;;;;;;;2.15;0.40;;;13.50;66.60;;;;;;6290338;28;20008;-73
2024/04/02 01:19:43;;;;;;;0.85;0.50;;;13.40;66.30;;;;;;6284936;28;20062;-73
2024/04/02 01:22:44;;;;;;;3.05;0.60;;;13.40;66.20;;;;;;6310023;28;20012;-72
2024/04/02 01:25:46;;;;;;;0.98;0.47;;;13.40;66.50;;;;;;6305127;28;20123;-74
2024/04/02 01:28:53;;;;;;;0.63;0.50;;;13.40;66.20;;;;;;6286711;28;20032;-73
2024/04/02 01:31:54;;;;;;;0.50;0.50;;;13.40;66.10;;;;;;6287302;28;20090;-73
2024/04/02 01:34:56;;;;;;;0.55;0.40;;;13.40;66.30;;;;;;6284496;28;20124;-74
2024/04/02 01:37:57;;;;;;;1.02;0.52;;;13.40;66.50;;;;;;6284528;28;20047;-73
2024/04/02 01:40:57;;;;;;;0.30;0.30;;;13.40;66.50;;;;;;6288539;28;20055;-74
2024/04/02 01:43:58;;;;;;;4.20;0.50;;;13.50;66.40;;;;;;6292472;28;20471;-73
2024/04/02 01:46:59;;;;;;;0.40;0.40;;;13.40;66.00;;;;;;6308303;28;20130;-73
2024/04/02 01:50:00;;;;;;;1.13;0.40;;;13.30;65.90;;;;;;6291287;28;20028;-73
2024/04/02 01:53:01;;;;;;;0.57;0.43;;;13.40;65.80;;;;;;6302967;28;20031;-74
2024/04/02 01:56:03;;;;;;;0.75;0.50;;;13.30;65.80;;;;;;6268053;28;20020;-72
2024/04/02 01:59:04;;;;;;;1.00;0.40;;;13.40;66.10;;;;;;6302206;28;20073;-73
2024/04/02 02:02:05;;;;;;;0.88;0.47;;;13.40;66.20;;;;;;6294172;28;20020;-73
2024/04/02 02:05:07;;;;;;;0.30;0.30;;;13.30;65.90;;;;;;6296493;28;20051;-71
2024/04/02 02:08:08;;;;;;;3.00;0.63;;;13.30;66.10;;;;;;6308799;28;20093;-73
2024/04/02 02:11:08;;;;;;;0.52;0.40;;;13.30;66.10;;;;;;6305380;28;20074;-73
2024/04/02 02:14:09;;;;;;;0.43;0.30;;;13.30;66.40;;;;;;6278613;28;20044;-73
2024/04/02 02:17:10;;;;;;;1.10;0.68;;;13.30;66.10;;;;;;6277422;28;20127;-73
2024/04/02 02:20:11;;;;;;;2.55;0.63;;;13.20;66.30;;;;;;6289451;28;20024;-74
2024/04/02 02:23:12;;;;;;;0.45;0.40;;;13.20;66.50;;;;;;6308392;28;20020;-72
2024/04/02 02:26:13;;;;;;;0.40;0.30;;;13.20;66.70;;;;;;6288458;28;20020;-73
2024/04/02 02:29:13;;;;;;;2.03;0.57;;;13.20;67.00;;;;;;6305842;28;20646;-74
2024/04/02 02:32:14;;;;;;;0.60;0.60;;;13.20;67.30;;;;;;6303991;28;20024;-74
2024/04/02 02:35:15;;;;;;;0.75;0.55;;;13.10;67.90;;;;;;6308201;28;20028;-74
2024/04/02 02:38:16;;;;;;;0.50;0.50;;;13.20;67.30;;;;;;6305901;28;20067;-74
2024/04/02 02:41:17;;;;;;;2.75;0.80;;;13.10;67.10;;;;;;6303567;28;20107;-73
2024/04/02 02:44:18;;;;;;;0.95;0.52;;;13.10;67.20;;;;;;6291749;28;20541;-71
2024/04/02 02:47:19;;;;;;;0.93;0.60;;;13.10;67.50;;;;;;6279701;28;20070;-72
2024/04/02 02:50:20;;;;;;;1.67;0.55;;;13.10;67.60;;;;;;6305334;28;20028;-72
2024/04/02 02:53:21;;;;;;;0.40;0.40;;;13.10;67.60;;;;;;6292435;28;20657;-72
2024/04/02 02:56:22;;;;;;;1.45;0.65;;;13.10;67.60;;;;;;6303518;28;20047;-73
2024/04/02 02:59:23;;;;;;;0.45;0.38;;;13.10;67.50;;;;;;6276751;28;20020;-72
2024/04/02 03:02:24;;;;;;;2.58;0.40;;;13.20;67.50;;;;;;6295736;28;20698;-72
2024/04/02 03:05:24;;;;;;;0.60;0.47;;;13.20;67.30;;;;;;6294296;28;20426;-74
2024/04/02 03:08:26;;;;;;;1.75;0.77;;;13.20;67.20;;;;;;6301512;28;20014;-74
2024/04/02 03:11:27;;;;;;;2.13;0.95;;;13.10;67.20;;;;;;6284867;28;20016;-74
2024/04/02 03:14:29;;;;;;;0.20;0.20;;;13.10;67.20;;;;;;6299626;28;20047;-74
2024/04/02 03:17:30;;;;;;;1.42;0.63;;;13.10;67.10;;;;;;6264149;28;20596;-74
2024/04/02 03:20:37;;;;;;;0.93;0.57;;;13.10;67.10;;;;;;6305269;28;20020;-74
2024/04/02 03:23:38;;;;;;;1.50;0.50;;;13.10;67.30;;;;;;6296281;28;20024;-74
2024/04/02 03:26:39;;;;;;;1.90;1.10;;;13.10;67.30;;;;;;6284482;28;20398;-74
2024/04/02 03:29:40;;;;;;;4.18;0.80;;;13.10;67.30;;;;;;6307252;28;20047;-75
2024/04/02 03:32:41;;;;;;;0.85;0.50;;;13.10;67.20;;;;;;6278302;28;20076;-74
2024/04/02 03:35:42;;;;;;;1.38;0.90;;;13.10;67.20;;;;;;6295639;28;20021;-73
2024/04/02 03:38:43;;;;;;;0.40;0.40;;;13.10;67.30;;;;;;6299364;28;20586;-73
2024/04/02 03:41:43;;;;;;;0.52;0.50;;;13.10;67.30;;;;;;6304796;28;20046;-74
2024/04/02 03:44:44;;;;;;;2.55;0.47;;;13.10;67.10;;;;;;6297610;28;20110;-72
2024/04/02 03:47:45;;;;;;;1.15;0.40;;;13.10;66.90;;;;;;6282336;28;20040;-74
2024/04/02 03:50:49;;;;;;;2.97;0.60;;;13.10;67.10;;;;;;6303876;28;20404;-73
2024/04/02 03:53:50;;;;;;;0.47;0.43;;;13.10;66.90;;;;;;6282463;28;20052;-74
2024/04/02 03:56:51;;;;;;;0.50;0.50;;;13.10;66.80;;;;;;6306045;28;20545;-74
2024/04/02 03:59:52;;;;;;;2.75;0.50;;;13.20;66.80;;;;;;6299084;28;20402;-73
2024/04/02 04:02:55;;;;;;;1.25;0.52;;;13.20;66.80;;;;;;6297187;28;20538;-74
2024/04/02 04:06:03;;;;;;;0.50;0.50;;;13.20;66.80;;;;;;6300380;28;20058;-73
2024/04/02 04:09:04;;;;;;;;;;;13.20;66.80;;;;;;6298050;28;20024;-74
2024/04/02 04:12:05;;;;;;;7.28;2.45;;;13.20;67.30;;;;;;6312423;28;20564;-74
2024/04/02 04:15:06;;;;;;;3.08;0.70;;;13.20;67.00;;;;;;6271563;28;20535;-75
2024/04/02 04:18:07;;;;;;;4.82;1.20;;;13.20;67.10;;;;;;6294549;28;20118;-72
2024/04/02 04:21:07;;;;;;;3.47;0.70;;;13.30;67.30;;;;;;6305225;28;20024;-74
2024/04/02 04:24:08;;;;;;;3.85;0.63;;;13.20;67.10;;;;;;6302484;28;20127;-73
2024/04/02 04:27:09;;;;;;;0.40;0.40;;;13.30;67.20;;;;;;6286497;28;20039;-73
2024/04/02 04:30:11;;;;;;;4.55;1.20;;;13.30;68.10;;;;;;6309586;28;20288;-72
2024/04/02 04:33:12;;;;;;;3.22;1.58;;;13.30;67.20;;;;;;6307286;28;20046;-74
2024/04/02 04:36:13;;;;;;;5.35;2.30;;;13.30;67.00;;;;;;6304589;28;20036;-74
2024/04/02 04:39:14;;;;;;;6.97;2.08;;;13.20;67.10;;;;;;6299642;28;20103;-72
2024/04/02 04:42:15;;;;;;;2.33;1.20;;;13.20;67.30;;;;;;6311604;28;20020;-74
2024/04/02 04:45:16;;;;;;;2.70;1.13;;;13.30;67.30;;;;;;6304667;28;20084;-72
2024/04/02 04:48:17;;;;;;;4.30;1.88;;;13.20;67.00;;;;;;6285788;28;20468;-73
2024/04/02 04:51:18;;;;;;;3.65;2.03;;;13.20;66.90;;;;;;6305580;28;20093;-74
2024/04/02 04:54:18;;;;;;;3.03;1.38;;;13.20;67.00;;;;;;6295208;28;20076;-72
2024/04/02 04:57:19;;;;;;;1.80;1.23;;;13.20;67.20;;;;;;6288140;28;20044;-74
2024/04/02 05:00:20;;;;;;;2.53;1.02;;;13.20;67.20;;;;;;6308251;28;20016;-72
2024/04/02 05:03:21;;;;;;;1.58;1.10;;;13.20;67.40;;;;;;6310674;28;20073;-73
2024/04/02 05:06:22;;;;;;;4.07;0.98;;;13.20;67.00;;;;;;6283570;28;20124;-72
2024/04/02 05:09:23;;;;;;;2.03;1.08;;;13.20;66.70;;;;;;6268868;28;20033;-73
2024/04/02 05:12:23;;;;;;;1.52;0.70;;;13.10;66.50;;;;;;6290293;28;20052;-72
2024/04/02 05:15:24;;;;;;;3.88;0.88;;;13.10;66.60;;;;;;6289040;28;20154;-74
2024/04/02 05:18:25;;;;;;;4.18;0.95;;;13.10;66.70;;;;;;6291085;28;20715;-74
2024/04/02 05:21:26;;;;;;;1.70;0.93;;;13.10;66.80;;;;;;6309820;28;20736;-73
2024/04/02 05:24:27;;;;;;;6.30;0.85;;;13.10;66.90;;;;;;6286053;28;20108;-73
2024/04/02 05:27:28;;;;;;;2.50;1.45;;;13.10;66.90;;;;;;6305534;28;20088;-74
2024/04/02 05:30:29;;;;;;;2.85;1.27;;;13.20;67.00;;;;;;6307829;28;20627;-75
2024/04/02 05:33:30;;;;;;;3.40;1.40;;;13.20;67.00;;;;;;6310024;28;20122;-73
2024/04/02 05:36:31;;;;;;;1.92;1.23;;;13.20;67.00;;;;;;6293634;28;20016;-73
2024/04/02 05:39:32;;;;;;;2.42;1.23;;;13.10;67.00;;;;;;6309657;28;20455;-73
2024/04/02 05:42:33;;;;;;;3.67;1.70;;;13.10;66.80;;;;;;6284992;28;20038;-74
2024/04/02 05:45:34;;;;;;;2.20;1.58;;;13.10;66.90;;;;;;6306733;28;20023;-73
2024/04/02 05:48:35;;;;;;;6.53;1.52;;;13.20;67.00;;;;;;6305802;28;20111;-74
2024/04/02 05:51:36;;;;;;;2.95;1.75;;;13.10;67.00;;;;;;6279752;28;20056;-74
2024/04/02 05:54:37;;;;;;;3.40;1.75;;;13.20;67.10;;;;;;6292149;28;20039;-73
2024/04/02 05:57:39;;;;;;;3.33;1.75;;;13.20;67.20;;;;;;6295239;28;20748;-72
2024/04/02 06:00:41;;;;;;;2.60;1.98;;;13.20;67.00;;;;;;6291681;28;20026;-73
2024/04/02 06:03:42;;;;;;;7.53;2.30;;;13.20;67.00;;;;;;6308170;28;20020;-73
2024/04/02 06:06:44;;;;;;;4.10;1.80;;;13.20;66.90;;;;;;6289713;28;20028;-73
2024/04/02 06:09:45;;;;;;;2.70;2.17;;;13.20;66.90;;;;;;6289813;28;20036;-73
2024/04/02 06:12:45;;;;;;;2.95;2.40;;;13.20;66.70;;;;;;6308611;28;20055;-72
2024/04/02 06:15:46;;;;;;;5.05;2.92;;;13.20;66.60;;;;;;6296880;28;20422;-73
2024/04/02 06:18:47;;;;;;;4.65;2.55;;;13.20;66.50;;;;;;6302159;28;20068;-71
2024/04/02 06:21:48;;;;;;;4.05;2.25;;;13.10;66.70;;;;;;6308689;28;20237;-71
2024/04/02 06:24:49;;;;;;;3.95;2.55;;;13.10;66.80;;;;;;6278369;28;20032;-72
2024/04/02 06:27:50;;;;;;;3.35;1.98;;;13.10;66.90;;;;;;6265826;28;20036;-73
2024/04/02 06:30:50;;;;;;;2.38;1.42;;;13.00;66.80;;;;;;6295224;28;20024;-72
2024/04/02 06:33:51;;;;;;;5.45;1.95;;;13.00;66.80;;;;;;6286859;28;20473;-72
2024/04/02 06:36:52;;;;;;;2.58;1.55;;;12.90;66.80;;;;;;6302962;28;20578;-72
2024/04/02 06:39:53;;;;;;;4.05;1.90;;;12.90;66.80;;;;;;6307083;28;20039;-73
2024/04/02 06:42:54;;;;;;;20.58;2.42;;;12.90;67.00;;;;;;6308393;28;20026;-72
2024/04/02 06:45:59;;;;;;;3.72;1.70;;;12.90;67.30;;;;;;6297417;28;20028;-73
2024/04/02 06:49:00;;;;;;;5.00;2.40;;;12.80;67.30;;;;;;6308451;28;20092;-74
2024/04/02 06:52:01;;;;;;;2.78;1.70;;;12.90;67.50;;;;;;6299650;28;20567;-75
2024/04/02 06:55:02;;;;;;;5.85;1.73;;;13.00;67.50;;;;;;6301698;28;20055;-75
2024/04/02 06:58:03;;;;;;;2.72;1.73;;;13.00;67.40;;;;;;6308852;28;20039;-73
2024/04/02 07:01:04;;;;;;;2.47;1.65;;;13.10;67.30;;;;;;6303871;28;20073;-73
2024/04/02 07:04:07;;;;;;;2.05;1.63;;;13.20;67.20;;;;;;6285023;28;20097;-75
2024/04/02 07:07:08;;;;;;;8.80;1.13;;;13.30;66.90;;;;;;6286498;28;20029;-75
2024/04/02 07:10:09;;;;;;;2.15;1.48;;;13.40;66.50;;;;;;6307972;28;20060;-74
2024/04/02 07:13:10;;;;;;;1.75;1.45;;;13.40;66.00;;;;;;6308411;28;20581;-74
2024/04/02 07:16:11;;;;;;;4.15;1.67;;;13.50;66.30;;;;;;6289348;28;20069;-74
2024/04/02 07:19:12;;;;;;;3.92;1.85;;;13.60;66.20;;;;;;6297763;28;20616;-73
2024/04/02 07:22:13;;;;;;;2.35;1.70;;;13.80;66.00;;;;;;6298512;28;20023;-74
2024/04/02 07:25:14;;;;;;;3.83;2.00;;;13.90;65.60;;;;;;6307957;28;20115;-74
2024/04/02 07:28:14;;;;;;;2.38;1.25;;;14.00;65.00;;;;;;6292619;28;20082;-74
2024/04/02 07:32:05;;;;;;;1.70;1.15;;;14.10;64.90;;;;;;6297125;28;20444;-73
2024/04/02 07:35:07;;;;;;;1.77;0.77;;;14.20;64.30;;;;;;6298727;28;20052;-73
2024/04/02 07:38:08;;;;;;;3.58;1.35;;;14.30;63.80;;;;;;6271353;28;20025;-72
2024/04/02 07:41:09;;;;;;;1.73;1.00;;;14.30;63.50;;;;;;6301442;28;20731;-74
2024/04/02 07:44:10;;;;;;;1.40;0.75;;;14.40;63.30;;;;;;6291971;28;20096;-73
2024/04/02 07:47:11;;;;;;;1.85;1.00;;;14.50;62.90;;;;;;6288343;28;20056;-74
2024/04/02 07:50:12;;;;;;;3.15;1.50;;;14.60;62.20;;;;;;6283017;28;20016;-75
2024/04/02 07:53:12;;;;;;;1.10;0.80;;;14.70;62.00;;;;;;6299863;28;20109;-73
2024/04/02 07:56:13;;;;;;;0.60;0.60;;;14.80;61.70;;;;;;6285160;28;20066;-73
2024/04/02 07:59:14;;;;;;;1.67;0.80;;;14.80;60.90;;;;;;6292586;28;20070;-73
2024/04/02 08:02:15;;;;;;;1.55;1.27;;;14.80;60.10;;;;;;6300230;28;20515;-73
2024/04/02 08:05:16;;;;;;;3.58;1.63;;;14.90;59.70;;;;;;6300686;28;20026;-73
2024/04/02 08:08:17;;;;;;;1.13;0.73;;;15.00;59.40;;;;;;6291603;28;20479;-73
2024/04/02 08:11:18;;;;;;;10.18;0.98;;;15.10;59.20;;;;;;6295178;28;20419;-73
2024/04/02 08:14:23;;;;;;;1.63;0.90;;;15.40;58.70;;;;;;6296498;28;20041;-75
2024/04/02 08:17:24;;;;;;;4.65;1.10;;;15.60;58.40;;;;;;6272645;28;20013;-72
2024/04/02 08:20:25;;;;;;;1.17;0.80;;;15.70;57.80;;;;;;6298324;28;20028;-74
2024/04/02 08:23:26;;;;;;;0.68;0.60;;;15.90;57.80;;;;;;6280256;28;20046;-73
2024/04/02 08:26:28;;;;;;;4.47;0.98;;;16.00;57.40;;;;;;6306773;28;20028;-73
2024/04/02 08:29:28;;;;;;;0.70;0.63;;;16.10;57.00;;;;;;6307041;28;20068;-74
2024/04/02 08:32:29;;;;;;;1.85;0.70;;;16.20;56.60;;;;;;6280287;28;20033;-74
2024/04/02 08:35:30;;;;;;;0.88;0.60;;;16.20;55.80;;;;;;6287121;28;20162;-72
2024/04/02 08:38:31;;;;;;;2.95;0.70;;;16.30;55.60;;;;;;6306472;28;20016;-73
2024/04/02 08:41:40;;;;;;;0.55;0.43;;;16.50;54.90;;;;;;6309915;28;20028;-75
2024/04/02 08:44:42;;;;;;;1.60;0.60;;;16.60;54.00;;;;;;6294540;28;20016;-73
2024/04/02 08:47:43;;;;;;;1.52;0.82;;;16.70;53.60;;;;;;6297198;28;20024;-73
2024/04/02 08:50:44;;;;;;;1.55;0.75;;;16.90;53.60;;;;;;6305682;28;20024;-74
2024/04/02 08:53:45;;;;;;;1.30;0.50;;;17.10;53.40;;;;;;6302524;28;20480;-73
2024/04/02 08:56:47;;;;;;;0.60;0.60;;;17.30;52.90;;;;;;6297344;28;20027;-74
2024/04/02 08:59:49;;;;;;;1.52;0.73;;;17.40;52.70;;;;;;6281461;28;20092;-74
2024/04/02 09:02:52;;;;;;;0.70;0.55;;;17.60;52.30;;;;;;6273346;28;20024;-73
2024/04/02 09:05:52;;;;;;;2.88;1.30;;;17.70;51.30;;;;;;6285670;28;20039;-73
2024/04/02 09:08:56;;;;;;;15.27;1.17;;;17.90;50.80;;;;;;6290201;28;20102;-74
2024/04/02 09:11:57;;;;;;;2.53;0.57;;;18.10;50.60;;;;;;6275559;28;20460;-74
2024/04/02 09:14:59;;;;;;;1.70;0.60;;;18.20;49.80;;;;;;6266886;28;20028;-76
2024/04/02 09:18:00;;;;;;;0.93;0.52;;;18.30;49.70;;;;;;6306692;28;20093;-74
2024/04/02 09:21:02;;;;;;;2.03;0.73;;;18.30;49.70;;;;;;6281826;28;20020;-74
2024/04/02 09:24:03;;;;;;;1.70;0.63;;;18.40;48.70;;;;;;6300533;28;20020;-75
2024/04/02 09:27:04;;;;;;;1.70;0.57;;;18.30;48.00;;;;;;6306269;28;20027;-75
2024/04/02 09:30:09;;;;;;;1.38;0.40;;;18.30;48.50;;;;;;6296552;28;20137;-73
2024/04/02 09:33:10;;;;;;;0.93;0.60;;;18.30;48.00;;;;;;6303827;28;20027;-74
2024/04/02 09:36:54;;;;;;;1.00;0.60;;;18.20;47.50;;;;;;6308981;28;20085;-73
2024/04/02 09:39:56;;;;;;;0.50;0.45;;;18.20;47.70;;;;;;6168352;28;20044;-73
2024/04/02 09:42:59;;;;;;;0.40;0.40;;;18.30;47.80;;;;;;6166184;28;20042;-73
2024/04/02 09:46:02;;;;;;;3.53;0.82;;;18.40;47.40;;;;;;6183108;28;20114;-75
2024/04/02 09:49:06;;;;;;;0.52;0.50;;;18.40;46.80;;;;;;6190678;28;20124;-74
2024/04/02 09:52:07;;;;;;;3.97;0.85;;;18.40;46.40;;;;;;6181099;28;20029;-73
2024/04/02 09:55:09;;;;;;;1.15;0.38;;;18.30;46.40;;;;;;6165282;28;20225;-73
2024/04/02 09:58:12;;;;;;;0.57;0.50;;;18.30;46.30;;;;;;6181668;28;20030;-74
2024/04/02 10:01:19;;;;;;;0.90;0.30;;;18.30;46.40;;;;;;6182789;28;20224;-74
2024/04/02 10:04:23;;;;;;;1.27;0.60;;;18.40;46.10;;;;;;6170846;28;20057;-73
2024/04/02 10:07:29;;;;;;;1.10;0.40;;;18.40;46.20;;;;;;6180488;28;20145;-73
2024/04/02 10:10:30;;;;;;;0.63;0.50;;;18.40;46.00;;;;;;6181588;28;20140;-75
2024/04/02 10:13:39;;;;;;;1.05;0.60;;;18.40;46.10;;;;;;6234579;28;20069;-73
2024/04/02 10:16:40;;;;;;;;;;;18.50;45.10;;;;;;6287874;28;20070;-74
2024/04/02 10:19:46;;;;;;;3.90;0.90;;;18.50;45.10;;;;;;6305698;28;19930;-74
2024/04/02 10:22:47;;;;;;;2.92;0.90;;;18.60;44.90;;;;;;6308570;28;20051;-73
2024/04/02 10:25:48;;;;;;;1.75;0.60;;;18.60;44.20;;;;;;6283768;28;20037;-73
2024/04/02 10:28:54;;;;;;;2.17;0.75;;;18.60;44.50;;;;;;6304295;28;20032;-74
2024/04/02 10:31:57;;;;;;;10.35;0.65;;;18.60;44.60;;;;;;6305261;28;20020;-74
2024/04/02 10:34:58;;;;;;;0.73;0.50;;;18.70;44.60;;;;;;6299041;28;20072;-74
2024/04/02 10:37:59;;;;;;;1.08;0.50;;;18.70;44.50;;;;;;6303960;28;20013;-73
2024/04/02 10:41:00;;;;;;;0.70;0.55;;;18.80;44.10;;;;;;6294801;28;20023;-72
2024/04/02 10:44:01;;;;;;;5.60;0.73;;;18.90;43.00;;;;;;6294235;28;20635;-75
2024/04/02 10:47:02;;;;;;;0.38;0.35;;;19.20;42.80;;;;;;6298313;28;20020;-74
2024/04/02 10:50:05;;;;;;;1.73;0.70;;;19.60;42.40;;;;;;6304315;28;20150;-72
2024/04/02 10:53:07;;;;;;;1.48;0.80;;;20.00;41.40;;;;;;6297754;28;20120;-74
2024/04/02 10:56:08;;;;;;;5.35;0.60;;;20.30;40.30;;;;;;6306279;28;20107;-73
2024/04/02 10:59:09;;;;;;;0.95;0.35;;;20.30;39.60;;;;;;6289830;28;20019;-74
2024/04/02 11:02:19;;;;;;;0.57;0.38;;;20.40;39.50;;;;;;6282469;28;20571;-73
2024/04/02 11:05:20;;;;;;;2.38;0.40;;;20.70;39.00;;;;;;6281911;28;20031;-74
2024/04/02 11:08:21;;;;;;;0.40;0.40;;;21.20;38.10;;;;;;6295878;28;20334;-74
2024/04/02 11:11:24;;;;;;;1.48;0.40;;;21.30;37.70;;;;;;6288011;28;20020;-74
2024/04/02 11:14:27;;;;;;;1.10;0.57;;;21.60;36.80;;;;;;6294006;28;20569;-74
2024/04/02 11:17:28;;;;;;;0.93;0.47;;;21.80;36.40;;;;;;6285106;28;20123;-74
2024/04/02 11:20:30;;;;;;;1.85;0.40;;;22.00;36.00;;;;;;6307510;28;20015;-72
2024/04/02 11:26:50;;;;;;;4.45;0.90;;;22.30;34.20;;;;;;6293745;28;20035;-73
2024/04/02 11:29:52;;;;;;;1.00;0.32;;;22.40;34.10;;;;;;6305170;28;20109;-75
2024/04/02 11:32:53;;;;;;;0.75;0.35;;;22.50;34.00;;;;;;6289106;28;20039;-73
2024/04/02 11:35:55;;;;;;;2.25;0.65;;;22.60;34.10;;;;;;6289941;28;20518;-74
2024/04/02 11:38:56;;;;;;;0.70;0.40;;;22.80;33.80;;;;;;6272434;28;20074;-74
2024/04/02 11:41:57;;;;;;;0.80;0.20;;;23.10;32.20;;;;;;6296929;28;20468;-74
2024/04/02 11:45:00;;;;;;;6.97;2.35;;;23.30;31.70;;;;;;6294121;28;20507;-74
2024/04/02 11:48:01;;;;;;;1.77;0.38;;;23.50;30.90;;;;;;6285471;28;20097;-76
2024/04/02 11:51:03;;;;;;;0.63;0.40;;;23.70;30.10;;;;;;6277890;28;20387;-73
2024/04/02 11:54:04;;;;;;;1.58;0.60;;;24.00;30.20;;;;;;6275193;28;20444;-74
2024/04/02 12:00:24;;;;;;;0.47;0.38;;;24.80;29.40;;;;;;6297336;28;20344;-74
2024/04/02 12:03:25;;;;;;;0.93;0.40;;;25.30;28.70;;;;;;6306483;28;20042;-74
2024/04/02 12:06:26;;;;;;;2.53;0.30;;;25.70;28.30;;;;;;6306257;28;20421;-73
2024/04/02 12:09:27;;;;;;;1.80;0.40;;;26.10;28.20;;;;;;6296325;28;20012;-73
2024/04/02 12:12:31;;;;;;;1.40;0.30;;;26.40;27.50;;;;;;6297175;28;20127;-74
2024/04/02 12:15:32;;;;;;;3.17;0.45;;;26.70;27.10;;;;;;6293610;28;20029;-72
2024/04/02 12:18:34;;;;;;;0.30;0.20;;;26.90;26.80;;;;;;6293774;28;20016;-72
2024/04/02 12:21:58;;;;;;;2.38;0.38;;;27.40;26.90;;;;;;6307683;28;20089;-74
2024/04/02 12:24:59;;;;;;;0.70;0.30;;;27.80;25.80;;;;;;6309781;28;20031;-73
2024/04/02 12:28:00;;;;;;;0.28;0.28;;;28.30;25.90;;;;;;6309647;28;20020;-73
2024/04/02 12:31:01;;;;;;;0.82;0.30;;;29.00;25.50;;;;;;6308836;28;20456;-73
2024/04/02 12:34:02;;;;;;;2.20;0.43;;;29.50;24.60;;;;;;6292934;28;20057;-73
2024/04/02 12:37:03;;;;;;;0.60;0.30;;;29.70;24.20;;;;;;6294267;28;20176;-74
2024/04/02 12:40:04;;;;;;;0.30;0.22;;;29.90;23.50;;;;;;6295369;28;20021;-74
2024/04/02 12:43:05;;;;;;;6.30;1.50;;;30.00;23.60;;;;;;6302941;28;20157;-74
2024/04/02 12:46:06;;;;;;;0.55;0.45;;;30.30;23.30;;;;;;6310257;28;20407;-74
2024/04/02 12:49:08;;;;;;;2.47;0.30;;;30.80;22.70;;;;;;6299976;28;20032;-74
2024/04/02 12:52:09;;;;;;;0.35;0.25;;;31.20;22.10;;;;;;6306471;28;20054;-74
2024/04/02 12:55:10;;;;;;;0.47;0.38;;;31.60;21.60;;;;;;6308202;28;20197;-75
2024/04/02 12:58:11;;;;;;;0.68;0.32;;;32.10;21.10;;;;;;6310667;28;20016;-74
2024/04/02 13:01:12;;;;;;;1.17;0.28;;;32.40;20.40;;;;;;6288112;28;20498;-73
2024/04/02 13:04:14;;;;;;;7.07;0.70;;;32.90;20.50;;;;;;6278226;28;20028;-74
2024/04/02 13:07:15;;;;;;;5.32;0.60;;;33.50;20.50;;;;;;6291578;28;20522;-73
2024/04/02 13:10:15;;;;;;;0.85;0.35;;;34.00;20.20;;;;;;6303672;28;20032;-73
2024/04/02 13:13:16;;;;;;;0.77;0.20;;;34.40;19.60;;;;;;6292990;28;20033;-75
2024/04/02 13:16:30;;;;;;;0.95;0.60;;;34.90;19.50;;;;;;6278325;28;20036;-74
2024/04/02 13:19:31;;;;;;;0.47;0.30;;;35.30;19.20;;;;;;6302220;28;20023;-74
2024/04/02 13:22:31;;;;;;;0.95;0.40;;;35.80;18.90;;;;;;6294588;28;20387;-73
2024/04/02 13:25:32;;;;;;;1.88;0.30;;;36.10;18.80;;;;;;6297665;28;20110;-75
2024/04/02 13:28:35;;;;;;;3.20;1.88;;;36.00;18.00;;;;;;6289511;28;20044;-74
2024/04/02 13:31:36;;;;;;;1.02;0.40;;;35.70;17.80;;;;;;6291348;28;20024;-75
2024/04/02 13:34:37;;;;;;;0.75;0.35;;;35.50;17.90;;;;;;6309793;28;20494;-74
2024/04/02 13:37:38;;;;;;;1.25;0.50;;;35.60;17.90;;;;;;6291163;28;20025;-74
2024/04/02 13:40:40;;;;;;;0.47;0.17;;;35.70;17.50;;;;;;6302528;28;20036;-73
2024/04/02 13:43:41;;;;;;;0.40;0.30;;;35.80;17.50;;;;;;6291689;28;20140;-71
2024/04/02 13:46:42;;;;;;;3.60;0.20;;;35.90;17.60;;;;;;6271025;28;20029;-74
2024/04/02 13:49:43;;;;;;;0.45;0.30;;;36.10;17.30;;;;;;6295705;28;20446;-74
2024/04/02 13:52:43;;;;;;;0.50;0.50;;;35.30;17.10;;;;;;6293210;28;20027;-73
2024/04/02 13:55:56;;;;;;;0.57;0.30;;;34.00;17.60;;;;;;6306701;28;20082;-73
2024/04/02 13:58:57;;;;;;;2.38;0.90;;;32.60;18.10;;;;;;6285515;28;20021;-73
2024/04/02 14:01:58;;;;;;;0.98;0.40;;;31.30;18.60;;;;;;6285859;28;20044;-73
2024/04/02 14:04:59;;;;;;;0.30;0.30;;;30.30;19.10;;;;;;6283716;28;20381;-72
2024/04/02 14:08:00;;;;;;;1.23;0.57;;;29.50;19.60;;;;;;6304024;28;20538;-72
2024/04/02 14:11:03;;;;;;;1.02;0.30;;;28.70;20.00;;;;;;6300676;28;20031;-73
2024/04/02 14:14:04;;;;;;;0.82;0.30;;;28.00;20.20;;;;;;6300071;28;20082;-74
2024/04/02 14:17:05;;;;;;;0.90;0.50;;;27.10;20.60;;;;;;6297040;28;20171;-74
2024/04/02 14:20:08;;;;;;;2.08;0.55;;;26.60;20.80;;;;;;6296894;28;20075;-74
2024/04/02 14:23:09;;;;;;;0.35;0.20;;;26.10;21.00;;;;;;6280102;28;20510;-74
2024/04/02 14:26:10;;;;;;;0.50;0.30;;;25.60;21.20;;;;;;6282626;28;20548;-73
2024/04/02 14:29:12;;;;;;;1.35;0.13;;;25.20;21.50;;;;;;6283119;28;20033;-74
2024/04/02 14:32:13;;;;;;;0.30;0.20;;;24.70;21.90;;;;;;6291397;28;20444;-72
2024/04/02 14:35:15;;;;;;;0.55;0.22;;;24.50;22.20;;;;;;6307447;28;20115;-72
2024/04/02 14:38:16;;;;;;;0.50;0.40;;;24.10;22.20;;;;;;6304265;28;20020;-73
2024/04/02 14:41:17;;;;;;;0.52;0.30;;;23.80;22.60;;;;;;6282152;28;20013;-73
2024/04/02 14:44:18;;;;;;;0.70;0.45;;;23.60;22.60;;;;;;6302672;28;20392;-75
2024/04/02 14:47:19;;;;;;;1.23;0.35;;;23.30;23.10;;;;;;6297578;28;20017;-74
2024/04/02 14:50:20;;;;;;;1.50;0.40;;;23.10;23.30;;;;;;6306128;28;20020;-74
2024/04/02 14:53:21;;;;;;;2.38;0.38;;;22.90;23.30;;;;;;6284426;28;20124;-75
2024/04/02 14:56:24;;;;;;;0.45;0.20;;;22.80;23.10;;;;;;6296462;28;20472;-74
2024/04/02 14:59:25;;;;;;;0.73;0.28;;;22.70;23.20;;;;;;6282707;28;20098;-73
2024/04/02 15:02:26;;;;;;;0.30;0.30;;;22.60;23.50;;;;;;6284952;28;20421;-74
2024/04/02 15:05:27;;;;;;;1.83;0.40;;;22.50;23.80;;;;;;6306772;28;20134;-74
2024/04/02 15:08:35;;;;;;;1.92;0.20;;;22.50;23.70;;;;;;6289440;28;20100;-72
2024/04/02 15:11:35;;;;;;;0.17;0.17;;;22.50;23.80;;;;;;6298125;28;20076;-74
2024/04/02 15:14:37;;;;;;;0.40;0.40;;;22.50;23.90;;;;;;6306962;28;20393;-72
2024/04/02 15:17:38;;;;;;;0.60;0.25;;;22.40;23.60;;;;;;6307299;28;20099;-72
2024/04/02 15:20:39;;;;;;;1.63;0.40;;;22.30;23.80;;;;;;6307294;28;20020;-72
2024/04/02 15:23:39;;;;;;;0.52;0.30;;;22.30;24.00;;;;;;6291463;28;20012;-73
2024/04/02 15:26:40;;;;;;;2.10;0.57;;;22.30;24.20;;;;;;6305569;28;20562;-73
2024/04/02 15:29:44;;;;;;;0.75;0.50;;;22.30;24.20;;;;;;6281574;28;20021;-72
2024/04/02 15:32:49;;;;;;;1.15;0.30;;;22.30;24.40;;;;;;6290875;28;20032;-73
2024/04/02 15:35:51;;;;;;;0.55;0.45;;;22.30;24.40;;;;;;6281769;28;20641;-73
2024/04/02 15:38:52;;;;;;;0.98;0.47;;;22.30;24.00;;;;;;6297853;28;20029;-73
2024/04/02 15:41:53;;;;;;;1.45;0.30;;;22.20;24.10;;;;;;6290551;28;20589;-72
2024/04/02 15:44:54;;;;;;;0.40;0.30;;;22.20;24.20;;;;;;6291013;28;20024;-74
2024/04/02 15:47:54;;;;;;;0.20;0.20;;;22.20;24.30;;;;;;6297249;28;20020;-73
2024/04/02 15:50:57;;;;;;;1.65;0.60;;;22.20;24.40;;;;;;6290222;28;20122;-74
2024/04/02 15:53:59;;;;;;;1.20;0.50;;;22.20;24.40;;;;;;6305761;28;20046;-75